Terminal Aerodrome Forecast
Issued by NWS Cleveland, OH

Home | Current Version | Previous Version | Graphics & Text | Print | Product List | Glossary On
Versions: 1 2 3 4 5 6 7 8 9 10 11 12 13 14 15 16 17 18 19 20 21 22 23
000
FTUS41 KCLE 201700
TAFCAK
TAF
KCAK 201738Z 2018/2118 21010G20KT P6SM BKN050 BKN250
     FM210500 21012KT P6SM VCTS BKN045CB PROB30 2106/2109 3SM TSRA
      BR OVC035CB
     FM211100 22010KT P6SM VCSH SCT015 OVC030
     FM211600 26015KT P6SM BKN040=

USA.gov is the U.S. government's official web portal to all federal, state and local government web resources and services.